sensor_id;sensor_type;location;lat;lon;timestamp;P1;durP1;ratioP1;P2;durP2;ratioP2
45420;SDS011;55462;47.042;8.292;2023-12-07T00:02:09;3.60;;;2.30;;
45420;SDS011;55462;47.042;8.292;2023-12-07T00:04:34;2.90;;;2.70;;
45420;SDS011;55462;47.042;8.292;2023-12-07T00:06:59;2.97;;;2.70;;
45420;SDS011;55462;47.042;8.292;2023-12-07T00:09:25;2.63;;;2.43;;
45420;SDS011;55462;47.042;8.292;2023-12-07T00:11:50;2.70;;;2.50;;
45420;SDS011;55462;47.042;8.292;2023-12-07T00:14:15;2.40;;;2.30;;
45420;SDS011;55462;47.042;8.292;2023-12-07T00:16:41;2.37;;;2.17;;
45420;SDS011;55462;47.042;8.292;2023-12-07T00:19:09;2.10;;;2.00;;
45420;SDS011;55462;47.042;8.292;2023-12-07T00:21:38;3.80;;;2.17;;
45420;SDS011;55462;47.042;8.292;2023-12-07T00:24:03;2.20;;;2.10;;
45420;SDS011;55462;47.042;8.292;2023-12-07T00:26:29;2.57;;;2.37;;
45420;SDS011;55462;47.042;8.292;2023-12-07T00:28:54;2.80;;;2.60;;
45420;SDS011;55462;47.042;8.292;2023-12-07T00:31:19;2.40;;;2.30;;
45420;SDS011;55462;47.042;8.292;2023-12-07T00:33:45;2.30;;;2.10;;
45420;SDS011;55462;47.042;8.292;2023-12-07T00:36:10;3.03;;;2.73;;
45420;SDS011;55462;47.042;8.292;2023-12-07T00:38:37;2.90;;;2.70;;
45420;SDS011;55462;47.042;8.292;2023-12-07T00:41:02;3.90;;;3.40;;
45420;SDS011;55462;47.042;8.292;2023-12-07T00:43:28;3.90;;;3.53;;
45420;SDS011;55462;47.042;8.292;2023-12-07T00:45:53;4.60;;;4.20;;
45420;SDS011;55462;47.042;8.292;2023-12-07T00:48:19;5.00;;;4.60;;
45420;SDS011;55462;47.042;8.292;2023-12-07T00:50:44;4.50;;;4.13;;
45420;SDS011;55462;47.042;8.292;2023-12-07T00:53:09;5.50;;;4.53;;
45420;SDS011;55462;47.042;8.292;2023-12-07T00:55:35;4.13;;;3.73;;
45420;SDS011;55462;47.042;8.292;2023-12-07T00:58:00;5.10;;;3.63;;
45420;SDS011;55462;47.042;8.292;2023-12-07T01:00:26;4.30;;;3.90;;
45420;SDS011;55462;47.042;8.292;2023-12-07T01:02:52;3.70;;;3.40;;
45420;SDS011;55462;47.042;8.292;2023-12-07T01:05:17;4.60;;;4.17;;
45420;SDS011;55462;47.042;8.292;2023-12-07T01:07:42;5.27;;;4.87;;
45420;SDS011;55462;47.042;8.292;2023-12-07T01:10:08;6.53;;;4.90;;
45420;SDS011;55462;47.042;8.292;2023-12-07T01:12:33;6.33;;;5.73;;
45420;SDS011;55462;47.042;8.292;2023-12-07T01:15:00;6.00;;;5.50;;
45420;SDS011;55462;47.042;8.292;2023-12-07T01:17:25;5.77;;;5.27;;
45420;SDS011;55462;47.042;8.292;2023-12-07T01:19:51;6.47;;;5.97;;
45420;SDS011;55462;47.042;8.292;2023-12-07T01:22:16;7.20;;;6.10;;
45420;SDS011;55462;47.042;8.292;2023-12-07T01:24:41;6.93;;;6.33;;
45420;SDS011;55462;47.042;8.292;2023-12-07T01:27:07;6.40;;;5.80;;
45420;SDS011;55462;47.042;8.292;2023-12-07T01:29:32;6.33;;;5.80;;
45420;SDS011;55462;47.042;8.292;2023-12-07T01:31:57;7.20;;;6.60;;
45420;SDS011;55462;47.042;8.292;2023-12-07T01:34:23;7.90;;;5.77;;
45420;SDS011;55462;47.042;8.292;2023-12-07T01:36:48;6.03;;;5.43;;
45420;SDS011;55462;47.042;8.292;2023-12-07T01:39:13;6.83;;;5.20;;
45420;SDS011;55462;47.042;8.292;2023-12-07T01:41:39;5.20;;;4.70;;
45420;SDS011;55462;47.042;8.292;2023-12-07T01:44:05;5.13;;;4.63;;
45420;SDS011;55462;47.042;8.292;2023-12-07T01:46:30;5.27;;;4.87;;
45420;SDS011;55462;47.042;8.292;2023-12-07T01:48:55;6.17;;;5.50;;
45420;SDS011;55462;47.042;8.292;2023-12-07T01:51:21;6.07;;;5.57;;
45420;SDS011;55462;47.042;8.292;2023-12-07T01:53:47;8.67;;;6.03;;
45420;SDS011;55462;47.042;8.292;2023-12-07T01:56:13;7.50;;;6.80;;
45420;SDS011;55462;47.042;8.292;2023-12-07T01:58:39;7.30;;;6.60;;
45420;SDS011;55462;47.042;8.292;2023-12-07T02:01:04;8.40;;;7.60;;
45420;SDS011;55462;47.042;8.292;2023-12-07T02:03:31;8.83;;;8.03;;
45420;SDS011;55462;47.042;8.292;2023-12-07T02:05:56;8.00;;;7.30;;
45420;SDS011;55462;47.042;8.292;2023-12-07T02:08:22;6.60;;;5.87;;
45420;SDS011;55462;47.042;8.292;2023-12-07T02:10:47;6.60;;;5.90;;
45420;SDS011;55462;47.042;8.292;2023-12-07T02:13:13;6.27;;;5.77;;
45420;SDS011;55462;47.042;8.292;2023-12-07T02:15:38;6.33;;;5.83;;
45420;SDS011;55462;47.042;8.292;2023-12-07T02:18:25;5.70;;;5.30;;
45420;SDS011;55462;47.042;8.292;2023-12-07T02:23:51;10.73;;;6.40;;
45420;SDS011;55462;47.042;8.292;2023-12-07T02:26:17;6.90;;;6.33;;
45420;SDS011;55462;47.042;8.292;2023-12-07T02:28:44;6.73;;;6.20;;
45420;SDS011;55462;47.042;8.292;2023-12-07T02:31:10;6.17;;;5.57;;
45420;SDS011;55462;47.042;8.292;2023-12-07T02:33:35;6.27;;;5.77;;
45420;SDS011;55462;47.042;8.292;2023-12-07T02:36:00;7.53;;;6.90;;
45420;SDS011;55462;47.042;8.292;2023-12-07T02:38:26;6.67;;;6.13;;
45420;SDS011;55462;47.042;8.292;2023-12-07T02:40:51;6.70;;;6.20;;
45420;SDS011;55462;47.042;8.292;2023-12-07T02:43:18;6.63;;;6.03;;
45420;SDS011;55462;47.042;8.292;2023-12-07T02:45:44;6.33;;;5.83;;
45420;SDS011;55462;47.042;8.292;2023-12-07T02:48:10;7.37;;;6.70;;
45420;SDS011;55462;47.042;8.292;2023-12-07T02:50:35;9.17;;;6.13;;
45420;SDS011;55462;47.042;8.292;2023-12-07T02:53:00;7.43;;;6.83;;
45420;SDS011;55462;47.042;8.292;2023-12-07T02:55:26;9.20;;;8.40;;
45420;SDS011;55462;47.042;8.292;2023-12-07T02:57:51;9.90;;;8.90;;
45420;SDS011;55462;47.042;8.292;2023-12-07T03:00:17;9.40;;;8.60;;
45420;SDS011;55462;47.042;8.292;2023-12-07T03:02:42;8.63;;;7.93;;
45420;SDS011;55462;47.042;8.292;2023-12-07T03:05:08;8.40;;;7.70;;
45420;SDS011;55462;47.042;8.292;2023-12-07T03:07:33;9.07;;;8.27;;
45420;SDS011;55462;47.042;8.292;2023-12-07T03:09:59;9.10;;;8.20;;
45420;SDS011;55462;47.042;8.292;2023-12-07T03:12:24;7.10;;;6.50;;
45420;SDS011;55462;47.042;8.292;2023-12-07T03:14:50;7.00;;;6.40;;
45420;SDS011;55462;47.042;8.292;2023-12-07T03:17:15;9.80;;;8.27;;
45420;SDS011;55462;47.042;8.292;2023-12-07T03:19:41;8.07;;;7.37;;
45420;SDS011;55462;47.042;8.292;2023-12-07T03:22:06;5.73;;;5.33;;
45420;SDS011;55462;47.042;8.292;2023-12-07T03:24:33;8.60;;;5.43;;
45420;SDS011;55462;47.042;8.292;2023-12-07T03:27:02;7.50;;;6.90;;
45420;SDS011;55462;47.042;8.292;2023-12-07T03:29:27;8.00;;;7.30;;
45420;SDS011;55462;47.042;8.292;2023-12-07T03:31:52;8.93;;;8.13;;
45420;SDS011;55462;47.042;8.292;2023-12-07T03:34:18;8.23;;;7.53;;
45420;SDS011;55462;47.042;8.292;2023-12-07T03:36:46;16.93;;;9.77;;
45420;SDS011;55462;47.042;8.292;2023-12-07T03:39:13;9.27;;;8.17;;
45420;SDS011;55462;47.042;8.292;2023-12-07T03:41:39;8.97;;;8.07;;
45420;SDS011;55462;47.042;8.292;2023-12-07T03:44:04;7.80;;;7.10;;
45420;SDS011;55462;47.042;8.292;2023-12-07T03:46:29;7.63;;;7.00;;
45420;SDS011;55462;47.042;8.292;2023-12-07T03:48:55;8.13;;;7.43;;
45420;SDS011;55462;47.042;8.292;2023-12-07T03:51:20;8.97;;;8.17;;
45420;SDS011;55462;47.042;8.292;2023-12-07T03:53:45;9.53;;;8.63;;
45420;SDS011;55462;47.042;8.292;2023-12-07T03:56:22;9.80;;;8.90;;
45420;SDS011;55462;47.042;8.292;2023-12-07T03:58:50;11.20;;;9.97;;
45420;SDS011;55462;47.042;8.292;2023-12-07T04:01:15;9.70;;;8.80;;
45420;SDS011;55462;47.042;8.292;2023-12-07T04:03:41;10.53;;;8.80;;
45420;SDS011;55462;47.042;8.292;2023-12-07T04:06:06;10.77;;;9.73;;
45420;SDS011;55462;47.042;8.292;2023-12-07T04:08:32;9.23;;;8.43;;
45420;SDS011;55462;47.042;8.292;2023-12-07T04:10:58;8.93;;;8.13;;
45420;SDS011;55462;47.042;8.292;2023-12-07T04:13:23;8.57;;;7.77;;
45420;SDS011;55462;47.042;8.292;2023-12-07T04:15:48;8.10;;;7.37;;
45420;SDS011;55462;47.042;8.292;2023-12-07T04:18:14;7.30;;;6.70;;
45420;SDS011;55462;47.042;8.292;2023-12-07T04:20:39;9.53;;;8.57;;
45420;SDS011;55462;47.042;8.292;2023-12-07T04:23:04;10.97;;;9.87;;
45420;SDS011;55462;47.042;8.292;2023-12-07T04:25:30;9.23;;;8.43;;
45420;SDS011;55462;47.042;8.292;2023-12-07T04:27:55;10.50;;;9.53;;
45420;SDS011;55462;47.042;8.292;2023-12-07T04:30:20;8.77;;;7.87;;
45420;SDS011;55462;47.042;8.292;2023-12-07T04:32:45;8.63;;;7.83;;
45420;SDS011;55462;47.042;8.292;2023-12-07T04:35:11;9.07;;;8.27;;
45420;SDS011;55462;47.042;8.292;2023-12-07T04:37:36;9.20;;;8.30;;
45420;SDS011;55462;47.042;8.292;2023-12-07T04:40:02;8.63;;;7.83;;
45420;SDS011;55462;47.042;8.292;2023-12-07T04:42:29;7.90;;;7.20;;
45420;SDS011;55462;47.042;8.292;2023-12-07T04:44:55;8.13;;;7.43;;
45420;SDS011;55462;47.042;8.292;2023-12-07T04:47:20;8.13;;;7.27;;
45420;SDS011;55462;47.042;8.292;2023-12-07T04:49:46;8.27;;;7.53;;
45420;SDS011;55462;47.042;8.292;2023-12-07T04:52:11;8.00;;;7.30;;
45420;SDS011;55462;47.042;8.292;2023-12-07T04:54:37;7.33;;;6.70;;
45420;SDS011;55462;47.042;8.292;2023-12-07T04:57:02;8.00;;;7.30;;
45420;SDS011;55462;47.042;8.292;2023-12-07T04:59:27;6.90;;;6.30;;
45420;SDS011;55462;47.042;8.292;2023-12-07T05:01:53;8.57;;;7.87;;
45420;SDS011;55462;47.042;8.292;2023-12-07T05:04:18;9.37;;;8.47;;
45420;SDS011;55462;47.042;8.292;2023-12-07T05:06:43;9.90;;;8.90;;
45420;SDS011;55462;47.042;8.292;2023-12-07T05:09:09;9.50;;;8.60;;
45420;SDS011;55462;47.042;8.292;2023-12-07T05:11:34;8.23;;;7.50;;
45420;SDS011;55462;47.042;8.292;2023-12-07T05:14:01;7.80;;;7.03;;
45420;SDS011;55462;47.042;8.292;2023-12-07T05:16:26;8.33;;;7.53;;
45420;SDS011;55462;47.042;8.292;2023-12-07T05:18:51;15.47;;;7.87;;
45420;SDS011;55462;47.042;8.292;2023-12-07T05:21:17;8.10;;;7.37;;
45420;SDS011;55462;47.042;8.292;2023-12-07T05:23:42;8.37;;;7.60;;
45420;SDS011;55462;47.042;8.292;2023-12-07T05:26:07;7.73;;;7.00;;
45420;SDS011;55462;47.042;8.292;2023-12-07T05:28:33;8.10;;;7.30;;
45420;SDS011;55462;47.042;8.292;2023-12-07T05:30:58;8.07;;;7.37;;
45420;SDS011;55462;47.042;8.292;2023-12-07T05:33:23;7.30;;;6.70;;
45420;SDS011;55462;47.042;8.292;2023-12-07T05:35:49;7.93;;;7.27;;
45420;SDS011;55462;47.042;8.292;2023-12-07T05:38:15;8.90;;;8.10;;
45420;SDS011;55462;47.042;8.292;2023-12-07T05:40:40;7.90;;;7.20;;
45420;SDS011;55462;47.042;8.292;2023-12-07T05:43:06;9.17;;;6.83;;
45420;SDS011;55462;47.042;8.292;2023-12-07T05:45:33;20.73;;;8.23;;
45420;SDS011;55462;47.042;8.292;2023-12-07T05:47:58;24.83;;;7.90;;
45420;SDS011;55462;47.042;8.292;2023-12-07T05:50:23;13.20;;;6.37;;
45420;SDS011;55462;47.042;8.292;2023-12-07T05:52:48;7.00;;;6.20;;
45420;SDS011;55462;47.042;8.292;2023-12-07T05:55:14;7.17;;;6.13;;
45420;SDS011;55462;47.042;8.292;2023-12-07T05:57:40;6.67;;;6.00;;
45420;SDS011;55462;47.042;8.292;2023-12-07T06:00:06;7.10;;;6.50;;
45420;SDS011;55462;47.042;8.292;2023-12-07T06:02:34;7.03;;;6.20;;
45420;SDS011;55462;47.042;8.292;2023-12-07T06:05:03;7.50;;;6.73;;
45420;SDS011;55462;47.042;8.292;2023-12-07T06:07:30;7.23;;;6.53;;
45420;SDS011;55462;47.042;8.292;2023-12-07T06:09:55;7.70;;;7.00;;
45420;SDS011;55462;47.042;8.292;2023-12-07T06:12:21;8.90;;;8.00;;
45420;SDS011;55462;47.042;8.292;2023-12-07T06:14:47;8.23;;;7.43;;
45420;SDS011;55462;47.042;8.292;2023-12-07T06:17:12;7.07;;;6.37;;
45420;SDS011;55462;47.042;8.292;2023-12-07T06:19:38;8.13;;;7.33;;
45420;SDS011;55462;47.042;8.292;2023-12-07T06:22:03;6.60;;;6.00;;
45420;SDS011;55462;47.042;8.292;2023-12-07T06:24:28;6.97;;;6.27;;
45420;SDS011;55462;47.042;8.292;2023-12-07T06:26:54;7.40;;;6.70;;
45420;SDS011;55462;47.042;8.292;2023-12-07T06:29:20;6.63;;;6.03;;
45420;SDS011;55462;47.042;8.292;2023-12-07T06:31:45;6.43;;;5.83;;
45420;SDS011;55462;47.042;8.292;2023-12-07T06:34:11;7.33;;;6.13;;
45420;SDS011;55462;47.042;8.292;2023-12-07T06:36:36;7.63;;;6.90;;
45420;SDS011;55462;47.042;8.292;2023-12-07T06:39:02;6.67;;;6.07;;
45420;SDS011;55462;47.042;8.292;2023-12-07T06:41:30;7.37;;;6.67;;
45420;SDS011;55462;47.042;8.292;2023-12-07T06:43:55;6.50;;;5.87;;
45420;SDS011;55462;47.042;8.292;2023-12-07T06:46:21;7.00;;;6.30;;
45420;SDS011;55462;47.042;8.292;2023-12-07T06:48:46;9.10;;;6.37;;
45420;SDS011;55462;47.042;8.292;2023-12-07T06:51:11;6.73;;;6.07;;
45420;SDS011;55462;47.042;8.292;2023-12-07T06:53:39;18.10;;;7.37;;
45420;SDS011;55462;47.042;8.292;2023-12-07T06:56:05;12.13;;;7.37;;
45420;SDS011;55462;47.042;8.292;2023-12-07T06:58:31;19.40;;;7.33;;
45420;SDS011;55462;47.042;8.292;2023-12-07T07:00:56;40.57;;;8.53;;
45420;SDS011;55462;47.042;8.292;2023-12-07T07:03:22;25.10;;;8.37;;
45420;SDS011;55462;47.042;8.292;2023-12-07T07:05:47;11.57;;;7.87;;
45420;SDS011;55462;47.042;8.292;2023-12-07T07:08:13;20.63;;;8.10;;
45420;SDS011;55462;47.042;8.292;2023-12-07T07:10:38;15.27;;;7.17;;
45420;SDS011;55462;47.042;8.292;2023-12-07T07:13:03;17.37;;;8.33;;
45420;SDS011;55462;47.042;8.292;2023-12-07T07:15:30;12.80;;;7.60;;
45420;SDS011;55462;47.042;8.292;2023-12-07T07:17:55;20.07;;;8.60;;
45420;SDS011;55462;47.042;8.292;2023-12-07T07:20:21;22.13;;;9.67;;
45420;SDS011;55462;47.042;8.292;2023-12-07T07:22:47;54.10;;;9.00;;
45420;SDS011;55462;47.042;8.292;2023-12-07T07:25:12;11.07;;;7.83;;
45420;SDS011;55462;47.042;8.292;2023-12-07T07:27:40;14.30;;;8.23;;
45420;SDS011;55462;47.042;8.292;2023-12-07T07:30:05;13.27;;;8.33;;
45420;SDS011;55462;47.042;8.292;2023-12-07T07:32:31;12.00;;;8.37;;
45420;SDS011;55462;47.042;8.292;2023-12-07T07:34:56;21.13;;;8.03;;
45420;SDS011;55462;47.042;8.292;2023-12-07T07:37:22;16.40;;;8.30;;
45420;SDS011;55462;47.042;8.292;2023-12-07T07:39:47;8.53;;;7.63;;
45420;SDS011;55462;47.042;8.292;2023-12-07T07:42:12;9.30;;;8.20;;
45420;SDS011;55462;47.042;8.292;2023-12-07T07:44:38;12.93;;;8.13;;
45420;SDS011;55462;47.042;8.292;2023-12-07T07:47:03;30.47;;;8.60;;
45420;SDS011;55462;47.042;8.292;2023-12-07T07:49:29;42.67;;;9.40;;
45420;SDS011;55462;47.042;8.292;2023-12-07T07:51:54;11.33;;;7.93;;
45420;SDS011;55462;47.042;8.292;2023-12-07T07:54:19;11.17;;;8.57;;
45420;SDS011;55462;47.042;8.292;2023-12-07T07:56:45;9.23;;;8.23;;
45420;SDS011;55462;47.042;8.292;2023-12-07T07:59:10;9.30;;;8.13;;
45420;SDS011;55462;47.042;8.292;2023-12-07T08:01:36;14.37;;;7.33;;
45420;SDS011;55462;47.042;8.292;2023-12-07T08:04:01;16.10;;;7.90;;
45420;SDS011;55462;47.042;8.292;2023-12-07T08:06:27;17.23;;;8.10;;
45420;SDS011;55462;47.042;8.292;2023-12-07T08:08:52;19.97;;;8.47;;
45420;SDS011;55462;47.042;8.292;2023-12-07T08:11:18;18.30;;;8.33;;
45420;SDS011;55462;47.042;8.292;2023-12-07T08:13:44;67.23;;;9.73;;
45420;SDS011;55462;47.042;8.292;2023-12-07T08:16:09;43.13;;;9.33;;
45420;SDS011;55462;47.042;8.292;2023-12-07T08:18:35;38.20;;;9.60;;
45420;SDS011;55462;47.042;8.292;2023-12-07T08:21:01;14.73;;;8.90;;
45420;SDS011;55462;47.042;8.292;2023-12-07T08:23:26;24.00;;;8.80;;
45420;SDS011;55462;47.042;8.292;2023-12-07T08:25:51;11.57;;;7.83;;
45420;SDS011;55462;47.042;8.292;2023-12-07T08:28:16;11.97;;;8.07;;
45420;SDS011;55462;47.042;8.292;2023-12-07T08:30:42;13.60;;;7.87;;
45420;SDS011;55462;47.042;8.292;2023-12-07T08:33:08;21.17;;;8.57;;
45420;SDS011;55462;47.042;8.292;2023-12-07T08:35:33;13.63;;;8.00;;
45420;SDS011;55462;47.042;8.292;2023-12-07T08:37:58;64.10;;;9.80;;
45420;SDS011;55462;47.042;8.292;2023-12-07T08:40:24;9.00;;;7.90;;
45420;SDS011;55462;47.042;8.292;2023-12-07T08:42:49;213.43;;;16.20;;
45420;SDS011;55462;47.042;8.292;2023-12-07T08:45:15;14.33;;;7.80;;
45420;SDS011;55462;47.042;8.292;2023-12-07T08:47:41;9.27;;;7.57;;
45420;SDS011;55462;47.042;8.292;2023-12-07T08:50:06;16.13;;;8.17;;
45420;SDS011;55462;47.042;8.292;2023-12-07T08:52:35;11.07;;;7.80;;
45420;SDS011;55462;47.042;8.292;2023-12-07T08:55:00;23.53;;;8.10;;
45420;SDS011;55462;47.042;8.292;2023-12-07T08:57:25;24.03;;;8.63;;
45420;SDS011;55462;47.042;8.292;2023-12-07T08:59:51;7.63;;;6.80;;
45420;SDS011;55462;47.042;8.292;2023-12-07T09:02:16;15.07;;;7.80;;
45420;SDS011;55462;47.042;8.292;2023-12-07T09:04:42;9.93;;;8.53;;
45420;SDS011;55462;47.042;8.292;2023-12-07T09:07:07;7.90;;;7.10;;
45420;SDS011;55462;47.042;8.292;2023-12-07T09:09:34;8.90;;;7.60;;
45420;SDS011;55462;47.042;8.292;2023-12-07T09:11:59;8.73;;;7.80;;
45420;SDS011;55462;47.042;8.292;2023-12-07T09:14:24;13.30;;;8.67;;
45420;SDS011;55462;47.042;8.292;2023-12-07T09:16:51;8.57;;;7.63;;
45420;SDS011;55462;47.042;8.292;2023-12-07T09:19:16;9.50;;;7.63;;
45420;SDS011;55462;47.042;8.292;2023-12-07T09:21:42;10.03;;;6.90;;
45420;SDS011;55462;47.042;8.292;2023-12-07T09:24:07;9.60;;;7.63;;
45420;SDS011;55462;47.042;8.292;2023-12-07T09:26:33;7.83;;;7.00;;
45420;SDS011;55462;47.042;8.292;2023-12-07T09:28:58;7.43;;;6.73;;
45420;SDS011;55462;47.042;8.292;2023-12-07T09:31:23;7.97;;;7.17;;
45420;SDS011;55462;47.042;8.292;2023-12-07T09:33:49;6.93;;;6.10;;
45420;SDS011;55462;47.042;8.292;2023-12-07T09:36:17;7.90;;;7.17;;
45420;SDS011;55462;47.042;8.292;2023-12-07T09:38:43;7.90;;;7.10;;
45420;SDS011;55462;47.042;8.292;2023-12-07T09:41:09;10.20;;;7.03;;
45420;SDS011;55462;47.042;8.292;2023-12-07T09:43:34;12.17;;;7.30;;
45420;SDS011;55462;47.042;8.292;2023-12-07T09:46:00;7.57;;;6.77;;
45420;SDS011;55462;47.042;8.292;2023-12-07T09:48:25;8.13;;;6.10;;
45420;SDS011;55462;47.042;8.292;2023-12-07T09:50:51;9.00;;;8.10;;
45420;SDS011;55462;47.042;8.292;2023-12-07T09:53:17;8.53;;;7.33;;
45420;SDS011;55462;47.042;8.292;2023-12-07T09:55:43;8.30;;;7.20;;
45420;SDS011;55462;47.042;8.292;2023-12-07T09:58:08;7.80;;;6.83;;
45420;SDS011;55462;47.042;8.292;2023-12-07T10:00:34;9.67;;;7.50;;
45420;SDS011;55462;47.042;8.292;2023-12-07T10:03:00;11.20;;;8.47;;
45420;SDS011;55462;47.042;8.292;2023-12-07T10:05:25;10.43;;;8.10;;
45420;SDS011;55462;47.042;8.292;2023-12-07T10:07:50;12.83;;;8.30;;
45420;SDS011;55462;47.042;8.292;2023-12-07T10:10:16;35.03;;;9.73;;
45420;SDS011;55462;47.042;8.292;2023-12-07T10:15:21;13.83;;;9.30;;
45420;SDS011;55462;47.042;8.292;2023-12-07T10:17:57;37.87;;;10.70;;
45420;SDS011;55462;47.042;8.292;2023-12-07T10:20:27;109.93;;;14.33;;
45420;SDS011;55462;47.042;8.292;2023-12-07T10:23:08;17.73;;;9.37;;
45420;SDS011;55462;47.042;8.292;2023-12-07T10:25:38;13.67;;;9.23;;
45420;SDS011;55462;47.042;8.292;2023-12-07T10:28:04;11.93;;;9.40;;
45420;SDS011;55462;47.042;8.292;2023-12-07T10:30:32;28.53;;;10.67;;
45420;SDS011;55462;47.042;8.292;2023-12-07T10:32:57;25.63;;;9.70;;
45420;SDS011;55462;47.042;8.292;2023-12-07T10:35:23;33.57;;;9.53;;
45420;SDS011;55462;47.042;8.292;2023-12-07T10:37:48;27.53;;;9.33;;
45420;SDS011;55462;47.042;8.292;2023-12-07T10:40:14;17.17;;;9.73;;
45420;SDS011;55462;47.042;8.292;2023-12-07T10:42:40;13.77;;;8.50;;
45420;SDS011;55462;47.042;8.292;2023-12-07T10:45:06;33.97;;;9.13;;
45420;SDS011;55462;47.042;8.292;2023-12-07T10:47:36;28.70;;;8.20;;
45420;SDS011;55462;47.042;8.292;2023-12-07T10:50:04;28.30;;;9.07;;
45420;SDS011;55462;47.042;8.292;2023-12-07T10:52:36;9.27;;;8.37;;
45420;SDS011;55462;47.042;8.292;2023-12-07T10:55:03;9.10;;;8.20;;
45420;SDS011;55462;47.042;8.292;2023-12-07T10:57:31;8.80;;;7.50;;
45420;SDS011;55462;47.042;8.292;2023-12-07T10:59:58;9.13;;;8.23;;
45420;SDS011;55462;47.042;8.292;2023-12-07T11:02:25;10.43;;;8.37;;
45420;SDS011;55462;47.042;8.292;2023-12-07T11:04:51;9.40;;;8.40;;
45420;SDS011;55462;47.042;8.292;2023-12-07T11:07:19;8.83;;;7.93;;
45420;SDS011;55462;47.042;8.292;2023-12-07T11:09:47;8.93;;;8.00;;
45420;SDS011;55462;47.042;8.292;2023-12-07T11:12:25;8.50;;;7.70;;
45420;SDS011;55462;47.042;8.292;2023-12-07T11:14:55;8.17;;;7.37;;
45420;SDS011;55462;47.042;8.292;2023-12-07T11:17:21;7.43;;;6.73;;
45420;SDS011;55462;47.042;8.292;2023-12-07T11:19:47;7.87;;;7.07;;
45420;SDS011;55462;47.042;8.292;2023-12-07T11:22:13;9.50;;;6.93;;
45420;SDS011;55462;47.042;8.292;2023-12-07T11:24:51;7.07;;;6.13;;
45420;SDS011;55462;47.042;8.292;2023-12-07T11:27:21;6.77;;;6.17;;
45420;SDS011;55462;47.042;8.292;2023-12-07T11:29:46;7.13;;;6.43;;
45420;SDS011;55462;47.042;8.292;2023-12-07T11:32:15;7.20;;;6.57;;
45420;SDS011;55462;47.042;8.292;2023-12-07T11:34:41;8.27;;;7.03;;
45420;SDS011;55462;47.042;8.292;2023-12-07T11:37:08;7.80;;;7.00;;
45420;SDS011;55462;47.042;8.292;2023-12-07T11:39:40;8.17;;;7.37;;
45420;SDS011;55462;47.042;8.292;2023-12-07T11:42:13;7.93;;;7.13;;
45420;SDS011;55462;47.042;8.292;2023-12-07T11:44:41;8.77;;;7.87;;
45420;SDS011;55462;47.042;8.292;2023-12-07T11:47:07;8.13;;;7.33;;
45420;SDS011;55462;47.042;8.292;2023-12-07T11:49:33;7.60;;;6.90;;
45420;SDS011;55462;47.042;8.292;2023-12-07T11:51:58;7.80;;;7.00;;
45420;SDS011;55462;47.042;8.292;2023-12-07T11:54:25;8.97;;;6.83;;
45420;SDS011;55462;47.042;8.292;2023-12-07T11:56:52;7.83;;;7.17;;
45420;SDS011;55462;47.042;8.292;2023-12-07T11:59:18;7.17;;;6.50;;
45420;SDS011;55462;47.042;8.292;2023-12-07T12:01:47;7.70;;;7.00;;
45420;SDS011;55462;47.042;8.292;2023-12-07T12:04:13;7.83;;;7.13;;
45420;SDS011;55462;47.042;8.292;2023-12-07T12:06:39;7.60;;;6.90;;
45420;SDS011;55462;47.042;8.292;2023-12-07T12:09:05;6.90;;;6.30;;
45420;SDS011;55462;47.042;8.292;2023-12-07T12:11:30;8.03;;;7.33;;
45420;SDS011;55462;47.042;8.292;2023-12-07T12:13:55;8.10;;;6.53;;
45420;SDS011;55462;47.042;8.292;2023-12-07T12:16:21;8.37;;;7.47;;
45420;SDS011;55462;47.042;8.292;2023-12-07T12:18:46;7.63;;;6.93;;
45420;SDS011;55462;47.042;8.292;2023-12-07T12:21:11;7.10;;;6.47;;
45420;SDS011;55462;47.042;8.292;2023-12-07T12:23:37;7.20;;;6.57;;
45420;SDS011;55462;47.042;8.292;2023-12-07T12:26:04;6.50;;;5.90;;
45420;SDS011;55462;47.042;8.292;2023-12-07T12:28:31;7.60;;;6.83;;
45420;SDS011;55462;47.042;8.292;2023-12-07T12:30:57;8.03;;;6.60;;
45420;SDS011;55462;47.042;8.292;2023-12-07T12:33:22;7.90;;;7.20;;
45420;SDS011;55462;47.042;8.292;2023-12-07T12:36:00;7.87;;;7.17;;
45420;SDS011;55462;47.042;8.292;2023-12-07T12:38:30;7.57;;;6.70;;
45420;SDS011;55462;47.042;8.292;2023-12-07T12:40:55;7.40;;;6.80;;
45420;SDS011;55462;47.042;8.292;2023-12-07T12:43:20;7.40;;;6.70;;
45420;SDS011;55462;47.042;8.292;2023-12-07T12:45:47;7.83;;;7.13;;
45420;SDS011;55462;47.042;8.292;2023-12-07T12:48:12;8.10;;;7.40;;
45420;SDS011;55462;47.042;8.292;2023-12-07T12:50:41;8.50;;;7.70;;
45420;SDS011;55462;47.042;8.292;2023-12-07T12:53:10;8.47;;;7.67;;
45420;SDS011;55462;47.042;8.292;2023-12-07T12:55:39;7.80;;;7.13;;
45420;SDS011;55462;47.042;8.292;2023-12-07T12:58:06;8.10;;;7.30;;
45420;SDS011;55462;47.042;8.292;2023-12-07T13:00:33;7.93;;;7.13;;
45420;SDS011;55462;47.042;8.292;2023-12-07T13:03:00;8.17;;;7.37;;
45420;SDS011;55462;47.042;8.292;2023-12-07T13:05:26;8.10;;;7.40;;
45420;SDS011;55462;47.042;8.292;2023-12-07T13:07:52;8.20;;;7.40;;
45420;SDS011;55462;47.042;8.292;2023-12-07T13:10:17;8.93;;;7.30;;
45420;SDS011;55462;47.042;8.292;2023-12-07T13:12:42;8.20;;;7.43;;
45420;SDS011;55462;47.042;8.292;2023-12-07T13:15:08;12.40;;;8.10;;
45420;SDS011;55462;47.042;8.292;2023-12-07T13:17:34;9.70;;;8.73;;
45420;SDS011;55462;47.042;8.292;2023-12-07T13:20:00;11.53;;;8.67;;
45420;SDS011;55462;47.042;8.292;2023-12-07T13:22:25;9.90;;;8.90;;
45420;SDS011;55462;47.042;8.292;2023-12-07T13:24:51;9.37;;;8.47;;
45420;SDS011;55462;47.042;8.292;2023-12-07T13:27:16;9.33;;;8.33;;
45420;SDS011;55462;47.042;8.292;2023-12-07T13:29:42;9.53;;;8.63;;
45420;SDS011;55462;47.042;8.292;2023-12-07T13:32:08;10.57;;;8.47;;
45420;SDS011;55462;47.042;8.292;2023-12-07T13:34:33;9.43;;;8.53;;
45420;SDS011;55462;47.042;8.292;2023-12-07T13:36:58;9.90;;;8.90;;
45420;SDS011;55462;47.042;8.292;2023-12-07T13:39:24;9.13;;;8.23;;
45420;SDS011;55462;47.042;8.292;2023-12-07T13:41:51;8.83;;;8.03;;
45420;SDS011;55462;47.042;8.292;2023-12-07T13:44:17;8.20;;;7.47;;
45420;SDS011;55462;47.042;8.292;2023-12-07T13:46:43;8.93;;;8.13;;
45420;SDS011;55462;47.042;8.292;2023-12-07T13:49:09;8.90;;;8.10;;
45420;SDS011;55462;47.042;8.292;2023-12-07T13:51:35;9.00;;;7.87;;
45420;SDS011;55462;47.042;8.292;2023-12-07T13:54:00;8.87;;;8.07;;
45420;SDS011;55462;47.042;8.292;2023-12-07T13:56:26;8.37;;;7.47;;
45420;SDS011;55462;47.042;8.292;2023-12-07T13:58:51;8.70;;;7.90;;
45420;SDS011;55462;47.042;8.292;2023-12-07T14:01:17;9.20;;;8.30;;
45420;SDS011;55462;47.042;8.292;2023-12-07T14:03:43;8.77;;;7.97;;
45420;SDS011;55462;47.042;8.292;2023-12-07T14:06:08;7.60;;;6.83;;
45420;SDS011;55462;47.042;8.292;2023-12-07T14:08:34;8.30;;;7.50;;
45420;SDS011;55462;47.042;8.292;2023-12-07T14:10:59;9.47;;;8.23;;
45420;SDS011;55462;47.042;8.292;2023-12-07T14:13:24;8.20;;;7.50;;
45420;SDS011;55462;47.042;8.292;2023-12-07T14:15:50;8.63;;;7.17;;
45420;SDS011;55462;47.042;8.292;2023-12-07T14:18:16;8.87;;;7.53;;
45420;SDS011;55462;47.042;8.292;2023-12-07T14:20:42;8.33;;;7.57;;
45420;SDS011;55462;47.042;8.292;2023-12-07T14:23:07;8.33;;;7.50;;
45420;SDS011;55462;47.042;8.292;2023-12-07T14:25:33;8.27;;;7.57;;
45420;SDS011;55462;47.042;8.292;2023-12-07T14:27:58;8.53;;;7.70;;
45420;SDS011;55462;47.042;8.292;2023-12-07T14:30:23;8.83;;;7.93;;
45420;SDS011;55462;47.042;8.292;2023-12-07T14:32:49;9.60;;;8.70;;
45420;SDS011;55462;47.042;8.292;2023-12-07T14:35:19;8.33;;;7.63;;
45420;SDS011;55462;47.042;8.292;2023-12-07T14:37:45;9.60;;;7.47;;
45420;SDS011;55462;47.042;8.292;2023-12-07T14:40:11;9.70;;;8.70;;
45420;SDS011;55462;47.042;8.292;2023-12-07T14:42:38;9.60;;;8.03;;